Terminal Aerodrome Forecast
Issued by NWS Columbia, SC

Current Version | Previous Version | Text Only | Print | Product List | Glossary On
Versions: 1 2 3 4 5 6 7 8 9 10 11 12 13 14 15 16 17 18 19 20 21 22 23 24 25 26 27
000
FTUS42 KCAE 222100 AAB
TAFCAE
TAF AMD
KCAE 222129Z 2221/2318 07007KT P6SM VCSH SCT035 BKN100
     FM222300 12005KT P6SM VCSH SCT020 BKN040
     FM230800 VRB03KT 4SM BR SCT120 BKN250
      TEMPO 2310/2314 2SM BR BKN010
     FM231600 VRB05KT P6SM SCT025 BKN120=

USA.gov is the U.S. government's official web portal to all federal, state and local government web resources and services.